createdAt,value
2022-09-28T00:00:02.353Z,93.16
2022-09-28T00:03:38.099Z,93.74
2022-09-28T00:06:41.827Z,92.68
2022-09-28T00:09:47.208Z,94.63
2022-09-28T00:12:52.035Z,96.25
2022-09-28T00:16:07.606Z,94.57
2022-09-28T00:19:12.696Z,95.03
2022-09-28T00:22:15.451Z,95.36
2022-09-28T00:25:22.088Z,95.47
2022-09-28T00:28:31.747Z,95.88
2022-09-28T00:32:02.635Z,97.60
2022-09-28T00:35:07.975Z,99.53
2022-09-28T00:38:11.222Z,100.00
2022-09-28T00:41:17.334Z,100.00
2022-09-28T00:45:04.935Z,100.00
2022-09-28T00:48:34.085Z,100.00
2022-09-28T00:51:41.952Z,100.00
2022-09-28T00:54:47.863Z,100.00
2022-09-28T00:57:58.073Z,100.00
2022-09-28T01:01:02.413Z,97.49
2022-09-28T01:04:07.230Z,96.10
2022-09-28T01:07:12.952Z,93.33
2022-09-28T01:10:16.615Z,92.39
2022-09-28T01:13:21.634Z,88.19
2022-09-28T01:16:50.184Z,87.72
2022-09-28T01:20:22.980Z,86.72
2022-09-28T01:24:04.137Z,84.89
2022-09-28T01:27:26.971Z,85.70
2022-09-28T01:30:37.548Z,85.60
2022-09-28T01:33:42.896Z,85.93
2022-09-28T01:36:57.556Z,85.55
2022-09-28T01:40:07.512Z,84.96
2022-09-28T01:43:17.648Z,84.84
2022-09-28T01:46:24.528Z,82.68
2022-09-28T01:49:34.821Z,83.03
2022-09-28T01:52:54.240Z,84.03
2022-09-28T01:56:11.710Z,84.58
2022-09-28T01:59:23.348Z,84.42
2022-09-28T02:02:35.192Z,84.80
2022-09-28T02:05:58.698Z,85.32
2022-09-28T02:09:24.452Z,83.43
2022-09-28T02:12:35.244Z,83.11
2022-09-28T02:15:50.866Z,84.63
2022-09-28T02:18:57.676Z,83.54
2022-09-28T02:22:09.853Z,82.90
2022-09-28T02:25:46.569Z,81.16
2022-09-28T02:28:50.809Z,82.16
2022-09-28T02:31:58.143Z,80.69
2022-09-28T02:35:06.825Z,80.19
2022-09-28T02:43:12.420Z,78.99
2022-09-28T02:46:29.861Z,80.30
2022-09-28T02:49:43.339Z,80.63
2022-09-28T02:53:12.009Z,78.92
2022-09-28T02:56:27.971Z,80.35
2022-09-28T03:00:05.163Z,79.03
2022-09-28T03:03:21.005Z,78.45
2022-09-28T03:06:34.930Z,78.26
2022-09-28T03:09:56.272Z,79.44
2022-09-28T03:13:00.841Z,80.98
2022-09-28T03:16:10.456Z,81.24
2022-09-28T03:19:18.926Z,81.54
2022-09-28T03:22:23.647Z,79.46
2022-09-28T03:25:49.216Z,80.56
2022-09-28T03:28:55.142Z,79.26
2022-09-28T03:32:01.558Z,80.17
2022-09-28T03:35:05.613Z,78.15
2022-09-28T03:38:11.436Z,80.09
2022-09-28T03:41:18.719Z,80.45
2022-09-28T03:44:25.237Z,81.31
2022-09-28T03:47:28.647Z,82.52
2022-09-28T03:50:35.543Z,84.37
2022-09-28T03:53:42.549Z,84.14
2022-09-28T03:56:46.348Z,84.94
2022-09-28T03:59:52.072Z,85.78
2022-09-28T04:03:14.909Z,87.24
2022-09-28T04:06:24.277Z,86.66
2022-09-28T04:09:27.336Z,87.74
2022-09-28T04:12:51.342Z,87.98
2022-09-28T04:15:58.961Z,88.57
2022-09-28T04:19:04.286Z,88.42
2022-09-28T04:22:09.121Z,88.43
2022-09-28T04:25:13.262Z,90.19
2022-09-28T04:28:36.016Z,90.23
2022-09-28T04:31:52.053Z,90.57
2022-09-28T04:34:55.775Z,91.39
2022-09-28T04:38:02.644Z,92.45
2022-09-28T04:41:08.116Z,93.14
2022-09-28T04:44:16.510Z,93.14
2022-09-28T04:47:43.628Z,93.49
2022-09-28T04:50:56.788Z,93.13
2022-09-28T04:54:19.635Z,93.17
2022-09-28T04:57:30.897Z,91.92
2022-09-28T05:00:58.388Z,88.71
2022-09-28T05:04:05.985Z,86.69
2022-09-28T05:07:09.349Z,86.15
2022-09-28T05:10:17.563Z,86.52
2022-09-28T05:13:21.055Z,87.97
2022-09-28T05:16:27.170Z,86.76
2022-09-28T05:19:35.197Z,87.27
2022-09-28T05:22:41.680Z,87.62
2022-09-28T05:25:45.938Z,88.91
2022-09-28T05:28:51.330Z,89.76
2022-09-28T05:31:58.256Z,90.76
2022-09-28T05:35:02.208Z,92.63
2022-09-28T05:38:07.258Z,93.56
2022-09-28T05:41:15.141Z,94.76
2022-09-28T05:44:21.156Z,94.97
2022-09-28T05:47:28.367Z,96.05
2022-09-28T05:50:33.854Z,95.69
2022-09-28T05:53:40.563Z,94.45
2022-09-28T05:57:08.395Z,94.44
2022-09-28T06:00:14.715Z,92.23
2022-09-28T06:03:18.050Z,92.01
2022-09-28T06:06:48.766Z,88.75
2022-09-28T06:09:56.173Z,89.06
2022-09-28T06:13:04.499Z,88.77
2022-09-28T06:16:10.886Z,87.11
2022-09-28T06:19:31.202Z,85.14
2022-09-28T06:22:36.906Z,79.44
2022-09-28T06:25:44.390Z,79.70
2022-09-28T06:28:48.524Z,76.98
2022-09-28T06:31:56.123Z,74.75
2022-09-28T06:35:02.777Z,74.51
2022-09-28T06:38:06.738Z,72.21
2022-09-28T06:41:18.955Z,69.96
2022-09-28T06:44:28.075Z,72.32
2022-09-28T06:47:33.876Z,70.92
2022-09-28T06:50:59.362Z,69.64
2022-09-28T06:54:35.400Z,68.09
2022-09-28T06:58:04.976Z,66.37
2022-09-28T07:01:42.373Z,67.57
2022-09-28T07:04:55.024Z,67.52
2022-09-28T07:08:05.196Z,67.10
2022-09-28T07:12:13.848Z,66.99
2022-09-28T07:15:17.779Z,67.95
2022-09-28T07:18:42.815Z,64.92
2022-09-28T07:22:02.287Z,64.46
2022-09-28T07:25:32.423Z,64.07
2022-09-28T07:28:43.034Z,65.86
2022-09-28T07:32:23.484Z,64.77
2022-09-28T07:35:28.143Z,62.43
2022-09-28T07:38:34.154Z,60.77
2022-09-28T07:41:39.763Z,57.89
2022-09-28T07:44:46.102Z,58.00
2022-09-28T07:47:50.280Z,56.48
2022-09-28T07:50:57.616Z,57.33
2022-09-28T07:54:06.627Z,55.45
2022-09-28T07:57:15.310Z,57.05
2022-09-28T08:00:19.406Z,57.44
2022-09-28T08:03:22.949Z,57.51
2022-09-28T08:06:25.899Z,57.89
2022-09-28T08:09:30.414Z,59.81
2022-09-28T08:12:36.079Z,59.39
2022-09-28T08:15:52.272Z,59.92
2022-09-28T08:18:56.342Z,61.20
2022-09-28T08:22:22.133Z,61.82
2022-09-28T08:25:45.551Z,62.58
2022-09-28T08:28:59.497Z,61.94
2022-09-28T08:34:36.264Z,63.03
2022-09-28T08:37:38.616Z,61.28
2022-09-28T08:42:25.385Z,60.78
2022-09-28T08:50:00.724Z,59.39
2022-09-28T08:53:44.467Z,58.04
2022-09-28T09:02:24.550Z,56.79
2022-09-28T09:06:09.746Z,53.49
2022-09-28T09:09:25.918Z,53.77
2022-09-28T09:16:25.304Z,52.25
2022-09-28T09:19:49.715Z,53.28
2022-09-28T09:23:17.387Z,49.53
2022-09-28T09:26:40.275Z,49.98
2022-09-28T09:30:12.891Z,47.13
2022-09-28T09:33:38.975Z,50.79
2022-09-28T09:36:59.368Z,47.69
2022-09-28T09:40:30.830Z,47.60
2022-09-28T09:43:58.860Z,45.62
2022-09-28T09:47:40.596Z,48.05
2022-09-28T09:51:27.526Z,46.78
2022-09-28T09:55:19.762Z,47.46
2022-09-28T09:58:48.064Z,48.22
2022-09-28T10:01:56.132Z,50.89
2022-09-28T10:05:15.079Z,53.33
2022-09-28T10:08:29.465Z,54.67
2022-09-28T10:11:46.240Z,53.65
2022-09-28T10:15:47.946Z,54.11
2022-09-28T10:19:23.292Z,54.10
2022-09-28T10:23:44.342Z,53.21
2022-09-28T10:27:02.063Z,52.63
2022-09-28T10:30:19.556Z,53.05
2022-09-28T10:33:33.718Z,55.42
2022-09-28T10:37:09.411Z,56.17
2022-09-28T10:40:58.205Z,56.16
2022-09-28T10:44:06.849Z,56.60
2022-09-28T10:47:17.858Z,58.17
2022-09-28T10:50:25.440Z,58.16
2022-09-28T10:53:32.174Z,58.25
2022-09-28T10:56:40.012Z,56.26
2022-09-28T10:59:44.531Z,56.29
2022-09-28T11:02:53.112Z,54.31
2022-09-28T11:06:30.465Z,53.04
2022-09-28T11:09:45.865Z,47.94
2022-09-28T11:12:51.635Z,44.29
2022-09-28T11:16:30.491Z,45.71
2022-09-28T11:20:12.253Z,48.00
2022-09-28T11:23:26.917Z,50.08
2022-09-28T11:27:22.131Z,47.79
2022-09-28T11:30:45.026Z,46.82
2022-09-28T11:34:06.507Z,46.43
2022-09-28T11:37:25.210Z,47.03
2022-09-28T11:41:00.589Z,46.72
2022-09-28T11:44:32.614Z,47.26
2022-09-28T11:47:47.344Z,49.33
2022-09-28T11:51:16.068Z,50.02
2022-09-28T11:55:26.549Z,50.85
2022-09-28T11:58:41.933Z,51.04
2022-09-28T12:01:58.719Z,49.90
2022-09-28T12:05:27.558Z,50.97
2022-09-28T12:08:35.231Z,51.45
2022-09-28T12:11:51.463Z,51.77
2022-09-28T12:15:00.470Z,53.13
2022-09-28T12:18:16.178Z,53.97
2022-09-28T12:21:28.192Z,53.28
2022-09-28T12:24:45.024Z,52.71
2022-09-28T12:28:06.745Z,53.91
2022-09-28T12:31:37.713Z,53.29
2022-09-28T12:35:00.051Z,55.34
2022-09-28T12:38:24.957Z,55.00
2022-09-28T12:42:01.107Z,56.64
2022-09-28T12:45:10.376Z,56.61
2022-09-28T12:48:28.672Z,54.88
2022-09-28T12:51:48.193Z,55.43
2022-09-28T12:55:02.215Z,53.66
2022-09-28T12:58:32.862Z,53.27
2022-09-28T13:02:02.379Z,54.65
2022-09-28T13:05:28.415Z,53.54
2022-09-28T13:08:36.895Z,55.00
2022-09-28T13:12:11.215Z,56.16
2022-09-28T13:15:23.639Z,53.97
2022-09-28T13:18:46.621Z,54.04
2022-09-28T13:21:59.150Z,52.55
2022-09-28T13:25:32.159Z,53.08
2022-09-28T13:28:54.693Z,51.88
2022-09-28T13:32:03.460Z,53.41
2022-09-28T13:35:06.872Z,53.23
2022-09-28T13:38:16.619Z,51.05
2022-09-28T13:41:34.272Z,51.04
2022-09-28T13:44:54.701Z,51.21
2022-09-28T13:47:58.026Z,51.58
2022-09-28T13:51:14.851Z,51.29
2022-09-28T13:54:32.525Z,52.65
2022-09-28T13:57:35.357Z,52.12
2022-09-28T14:01:09.218Z,52.82
2022-09-28T14:04:19.753Z,54.37
2022-09-28T14:10:46.423Z,55.33
2022-09-28T14:14:08.147Z,52.83
2022-09-28T14:17:29.803Z,52.92
2022-09-28T14:20:35.425Z,53.32
2022-09-28T14:24:05.491Z,54.27
2022-09-28T14:27:16.975Z,54.01
2022-09-28T14:30:29.643Z,53.39
2022-09-28T14:33:35.094Z,53.80
2022-09-28T14:37:06.543Z,53.61
2022-09-28T14:40:36.573Z,54.55
2022-09-28T14:43:48.214Z,56.06
2022-09-28T14:47:33.919Z,55.98
2022-09-28T14:50:39.715Z,55.89
2022-09-28T14:53:42.708Z,56.26
2022-09-28T14:56:49.689Z,56.80
2022-09-28T14:59:55.428Z,57.12
2022-09-28T15:03:21.763Z,57.12
2022-09-28T15:06:29.026Z,58.61
2022-09-28T15:09:38.077Z,59.37
2022-09-28T15:12:44.800Z,59.70
2022-09-28T15:15:51.789Z,60.56
2022-09-28T15:19:02.890Z,60.48
2022-09-28T15:22:18.797Z,61.41
2022-09-28T15:25:22.635Z,61.66
2022-09-28T15:28:25.881Z,61.55
2022-09-28T15:31:34.106Z,59.93
2022-09-28T15:34:56.963Z,60.43
2022-09-28T15:38:00.005Z,59.86
2022-09-28T15:41:10.296Z,60.30
2022-09-28T15:44:30.830Z,60.62
2022-09-28T15:47:35.380Z,61.08
2022-09-28T15:51:23.008Z,61.17
2022-09-28T15:54:42.687Z,61.44
2022-09-28T15:57:49.432Z,61.69
2022-09-28T16:01:31.139Z,62.54
2022-09-28T16:04:48.254Z,62.17
2022-09-28T16:07:56.520Z,62.43
2022-09-28T16:11:11.485Z,62.85
2022-09-28T16:14:21.291Z,63.48
2022-09-28T16:17:35.772Z,63.82
2022-09-28T16:20:43.085Z,64.24
2022-09-28T16:23:56.180Z,63.75
2022-09-28T16:27:07.730Z,64.50
2022-09-28T16:30:32.989Z,65.12
2022-09-28T16:34:09.549Z,66.81
2022-09-28T16:37:44.348Z,66.78
2022-09-28T16:40:54.061Z,68.16
2022-09-28T16:44:02.397Z,69.10
2022-09-28T16:47:07.681Z,68.19
2022-09-28T16:50:19.671Z,68.33
2022-09-28T16:53:44.559Z,69.18
2022-09-28T16:56:47.609Z,68.87
2022-09-28T16:59:56.283Z,67.89
2022-09-28T17:03:05.335Z,68.02
2022-09-28T17:06:12.122Z,67.68
2022-09-28T17:09:16.165Z,67.81
2022-09-28T17:12:43.366Z,68.09
2022-09-28T17:15:50.245Z,67.83
2022-09-28T17:18:53.028Z,66.85
2022-09-28T17:21:55.844Z,70.85
2022-09-28T17:25:04.794Z,74.86
2022-09-28T17:28:18.601Z,73.21
2022-09-28T17:31:26.942Z,72.79
2022-09-28T17:34:30.542Z,73.93
2022-09-28T17:37:40.810Z,74.07
2022-09-28T17:40:50.670Z,75.76
2022-09-28T17:43:59.881Z,76.88
2022-09-28T17:47:46.122Z,78.53
2022-09-28T17:50:48.657Z,79.03
2022-09-28T17:53:54.386Z,81.49
2022-09-28T17:56:58.586Z,85.75
2022-09-28T18:00:02.094Z,87.66
2022-09-28T18:03:29.758Z,90.19
2022-09-28T18:06:38.092Z,92.89
2022-09-28T18:09:41.808Z,94.44
2022-09-28T18:12:45.633Z,97.88
2022-09-28T18:16:10.591Z,100.00
2022-09-28T18:19:13.877Z,100.00
2022-09-28T18:22:41.276Z,100.00
2022-09-28T18:25:47.415Z,100.00
2022-09-28T18:28:56.179Z,100.00
2022-09-28T18:32:01.762Z,100.00
2022-09-28T18:35:07.315Z,100.00
2022-09-28T18:38:15.569Z,100.00
2022-09-28T18:41:18.799Z,100.00
2022-09-28T18:44:23.874Z,100.00
2022-09-28T18:47:30.480Z,100.00
2022-09-28T18:50:34.393Z,100.00
2022-09-28T18:53:38.034Z,100.00
2022-09-28T18:56:41.175Z,100.00
2022-09-28T18:59:44.663Z,100.00
2022-09-28T19:02:47.967Z,100.00
2022-09-28T19:05:53.851Z,100.00
2022-09-28T19:09:01.580Z,100.00
2022-09-28T19:12:06.967Z,100.00
2022-09-28T19:15:12.910Z,100.00
2022-09-28T19:18:16.429Z,100.00
2022-09-28T19:21:24.431Z,100.00
2022-09-28T19:24:55.800Z,100.00
2022-09-28T19:28:00.126Z,100.00
2022-09-28T19:31:09.489Z,100.00
2022-09-28T19:34:30.455Z,100.00
2022-09-28T19:37:54.122Z,100.00
2022-09-28T19:40:58.785Z,100.00
2022-09-28T19:44:06.469Z,100.00
2022-09-28T19:47:11.976Z,100.00
2022-09-28T19:50:14.466Z,100.00
2022-09-28T19:53:21.858Z,100.00
2022-09-28T19:56:48.295Z,100.00
2022-09-28T19:59:53.297Z,100.00
2022-09-28T20:02:58.283Z,100.00
2022-09-28T20:06:02.180Z,100.00
2022-09-28T20:09:10.350Z,100.00
2022-09-28T20:12:14.116Z,100.00
2022-09-28T20:15:35.880Z,100.00
2022-09-28T20:18:39.527Z,100.00
2022-09-28T20:21:44.929Z,100.00
2022-09-28T20:24:54.364Z,100.00
2022-09-28T20:28:17.184Z,100.00
2022-09-28T20:31:26.273Z,100.00
2022-09-28T20:34:30.423Z,100.00
2022-09-28T20:37:37.305Z,100.00
2022-09-28T20:40:42.379Z,100.00
2022-09-28T20:43:46.814Z,100.00
2022-09-28T20:46:52.145Z,100.00
2022-09-28T20:49:56.872Z,100.00
2022-09-28T20:53:04.299Z,100.00
2022-09-28T20:56:12.871Z,100.00
2022-09-28T20:59:20.324Z,100.00
2022-09-28T21:02:24.025Z,100.00
2022-09-28T21:05:47.512Z,100.00
2022-09-28T21:09:14.782Z,100.00
2022-09-28T21:12:38.893Z,100.00
2022-09-28T21:15:43.003Z,100.00
2022-09-28T21:19:05.426Z,100.00
2022-09-28T21:22:08.318Z,100.00
2022-09-28T21:25:11.689Z,100.00
2022-09-28T21:28:36.370Z,100.00
2022-09-28T21:31:47.467Z,100.00
2022-09-28T21:34:51.063Z,100.00
2022-09-28T21:37:56.383Z,100.00
2022-09-28T21:41:05.089Z,100.00
2022-09-28T21:44:08.627Z,100.00
2022-09-28T21:47:13.346Z,100.00
2022-09-28T21:50:15.885Z,100.00
2022-09-28T21:53:18.975Z,100.00
2022-09-28T21:56:23.806Z,100.00
2022-09-28T21:59:26.593Z,100.00
2022-09-28T22:02:32.056Z,100.00
2022-09-28T22:05:37.639Z,100.00
2022-09-28T22:08:42.904Z,100.00
2022-09-28T22:11:49.042Z,100.00
2022-09-28T22:14:51.792Z,100.00
2022-09-28T22:17:58.024Z,100.00
2022-09-28T22:21:10.844Z,100.00
2022-09-28T22:24:24.648Z,100.00
2022-09-28T22:27:31.230Z,100.00
2022-09-28T22:30:38.034Z,100.00
2022-09-28T22:33:43.706Z,100.00
2022-09-28T22:37:06.348Z,100.00
2022-09-28T22:40:12.678Z,100.00
2022-09-28T22:43:16.147Z,100.00
2022-09-28T22:46:24.553Z,100.00
2022-09-28T22:49:45.542Z,100.00
2022-09-28T22:52:48.708Z,100.00
2022-09-28T22:55:51.998Z,100.00
2022-09-28T22:58:54.514Z,100.00
2022-09-28T23:01:59.487Z,100.00
2022-09-28T23:05:03.406Z,100.00
2022-09-28T23:08:06.562Z,100.00
2022-09-28T23:11:10.655Z,100.00
2022-09-28T23:14:16.917Z,100.00
2022-09-28T23:17:41.703Z,100.00
2022-09-28T23:20:44.980Z,100.00
2022-09-28T23:24:03.992Z,100.00
2022-09-28T23:27:29.583Z,100.00
2022-09-28T23:30:34.691Z,100.00
2022-09-28T23:33:42.196Z,100.00
2022-09-28T23:37:07.597Z,100.00
2022-09-28T23:40:11.204Z,100.00
2022-09-28T23:43:14.454Z,100.00
2022-09-28T23:46:20.906Z,100.00
2022-09-28T23:49:43.726Z,100.00
2022-09-28T23:52:50.974Z,100.00
2022-09-28T23:55:54.339Z,100.00
2022-09-28T23:58:57.659Z,100.00
